Pagina principală
METAR-TAF:

METAR-TAF

Aeroporturi :

Potosí, Bolivia

Latitudine: 19-33S, longitudine: 065-44W, elevație: 3935 m

Observații meteo curente

Raportul a fost făcut în urmă cu 7 ore și 23 de minute, la 22:00 UTC
Vânt 10 kt de la Est
Temperatură 13°C
Umiditate 58%
Presiune 1042 hPa
Vizibilitate de 10 km sau mai mult
Nori împrăștiați la o înălțime de 2000 picior
Nori fragmentați la o înălțime de 20000 picior

METAR: SLPO 242200Z 09010KT 9999 SCT020 BKN200 13/05 Q1042

Ora: 01:23 (05:23 UTC)


TAF: lipsă

Observații și prognoze meteo pentru peste 4.000 de aeroporturi (rapoarte METAR și TAF).

Stațiile disponibile sunt reprezentate pe hartă prin puncte galbene și roșii.

Țineți indicatorul mouse-ului pe punctul dorit pentru a vedea denumirea stației.

Apoi, faceți clic pentru a vedea observațiile și prognozele meteorologice.

Pentru a schimba harta: Pentru mărire, faceți clic pe butoanele verzi cu cruce neagră; pentru micșorare, pe butonul verde cu o liniuță; pentru hărți învecinate, pe săgețile verzi.


METAR-TAF: